sensor_id;sensor_type;location;lat;lon;timestamp;temperature;humidity
32293;DHT22;43233;48.608;8.838;2023-03-01T00:00:38;-0.40;54.60
32293;DHT22;43233;48.608;8.838;2023-03-01T00:03:04;-0.50;54.90
32293;DHT22;43233;48.608;8.838;2023-03-01T00:05:29;-0.50;54.80
32293;DHT22;43233;48.608;8.838;2023-03-01T00:07:55;-0.50;55.00
32293;DHT22;43233;48.608;8.838;2023-03-01T00:10:21;-0.50;54.90
32293;DHT22;43233;48.608;8.838;2023-03-01T00:12:47;-0.50;55.10
32293;DHT22;43233;48.608;8.838;2023-03-01T00:15:12;-0.50;55.20
32293;DHT22;43233;48.608;8.838;2023-03-01T00:17:38;-0.60;55.10
32293;DHT22;43233;48.608;8.838;2023-03-01T00:20:04;-0.50;55.30
32293;DHT22;43233;48.608;8.838;2023-03-01T00:22:33;-0.60;55.30
32293;DHT22;43233;48.608;8.838;2023-03-01T00:24:59;-0.60;55.30
32293;DHT22;43233;48.608;8.838;2023-03-01T00:27:24;-0.60;55.50
32293;DHT22;43233;48.608;8.838;2023-03-01T00:29:50;-0.60;55.50
32293;DHT22;43233;48.608;8.838;2023-03-01T00:32:17;-0.70;55.60
32293;DHT22;43233;48.608;8.838;2023-03-01T00:34:43;-0.70;55.70
32293;DHT22;43233;48.608;8.838;2023-03-01T00:37:22;-0.70;55.90
32293;DHT22;43233;48.608;8.838;2023-03-01T00:39:48;-0.70;55.90
32293;DHT22;43233;48.608;8.838;2023-03-01T00:42:15;-0.70;56.40
32293;DHT22;43233;48.608;8.838;2023-03-01T00:44:40;-0.80;56.10
32293;DHT22;43233;48.608;8.838;2023-03-01T00:47:06;-0.80;56.20
32293;DHT22;43233;48.608;8.838;2023-03-01T00:49:31;-0.80;56.40
32293;DHT22;43233;48.608;8.838;2023-03-01T00:51:57;-0.80;56.20
32293;DHT22;43233;48.608;8.838;2023-03-01T00:54:23;-0.80;56.30
32293;DHT22;43233;48.608;8.838;2023-03-01T00:56:48;-0.80;56.40
32293;DHT22;43233;48.608;8.838;2023-03-01T00:59:14;-0.80;56.60
32293;DHT22;43233;48.608;8.838;2023-03-01T01:01:40;-0.90;56.90
32293;DHT22;43233;48.608;8.838;2023-03-01T01:04:08;-0.90;57.30
32293;DHT22;43233;48.608;8.838;2023-03-01T01:06:38;-0.90;57.50
32293;DHT22;43233;48.608;8.838;2023-03-01T01:09:05;-0.90;57.40
32293;DHT22;43233;48.608;8.838;2023-03-01T01:11:33;-0.90;58.00
32293;DHT22;43233;48.608;8.838;2023-03-01T01:14:00;-1.00;58.00
32293;DHT22;43233;48.608;8.838;2023-03-01T01:16:27;-1.00;58.00
32293;DHT22;43233;48.608;8.838;2023-03-01T01:18:53;-1.00;58.00
32293;DHT22;43233;48.608;8.838;2023-03-01T01:21:21;-1.00;57.80
32293;DHT22;43233;48.608;8.838;2023-03-01T01:23:47;-1.00;57.70
32293;DHT22;43233;48.608;8.838;2023-03-01T01:26:17;-1.00;57.60
32293;DHT22;43233;48.608;8.838;2023-03-01T01:28:43;-1.00;57.50
32293;DHT22;43233;48.608;8.838;2023-03-01T01:31:09;-1.00;57.50
32293;DHT22;43233;48.608;8.838;2023-03-01T01:33:34;-1.00;57.60
32293;DHT22;43233;48.608;8.838;2023-03-01T01:36:00;-1.10;58.60
32293;DHT22;43233;48.608;8.838;2023-03-01T01:38:26;-1.10;57.70
32293;DHT22;43233;48.608;8.838;2023-03-01T01:40:52;-1.10;57.60
32293;DHT22;43233;48.608;8.838;2023-03-01T01:43:27;-1.10;57.70
32293;DHT22;43233;48.608;8.838;2023-03-01T01:46:03;-1.10;58.10
32293;DHT22;43233;48.608;8.838;2023-03-01T01:48:46;-1.20;58.00
32293;DHT22;43233;48.608;8.838;2023-03-01T01:51:18;-1.10;58.60
32293;DHT22;43233;48.608;8.838;2023-03-01T01:53:47;-1.20;57.90
32293;DHT22;43233;48.608;8.838;2023-03-01T01:56:15;-1.20;58.10
32293;DHT22;43233;48.608;8.838;2023-03-01T01:58:41;-1.20;58.40
32293;DHT22;43233;48.608;8.838;2023-03-01T02:01:09;-1.30;58.50
32293;DHT22;43233;48.608;8.838;2023-03-01T02:03:37;-1.30;58.30
32293;DHT22;43233;48.608;8.838;2023-03-01T02:08:40;-1.30;58.70
32293;DHT22;43233;48.608;8.838;2023-03-01T02:11:08;-1.30;58.80
32293;DHT22;43233;48.608;8.838;2023-03-01T02:13:35;-1.30;58.80
32293;DHT22;43233;48.608;8.838;2023-03-01T02:16:05;-1.30;59.00
32293;DHT22;43233;48.608;8.838;2023-03-01T02:18:33;-1.40;59.30
32293;DHT22;43233;48.608;8.838;2023-03-01T02:23:45;-1.50;60.40
32293;DHT22;43233;48.608;8.838;2023-03-01T02:28:46;-1.60;60.70
32293;DHT22;43233;48.608;8.838;2023-03-01T02:31:17;-1.60;61.90
32293;DHT22;43233;48.608;8.838;2023-03-01T02:34:03;-1.60;60.90
32293;DHT22;43233;48.608;8.838;2023-03-01T02:36:35;-1.60;60.80
32293;DHT22;43233;48.608;8.838;2023-03-01T02:39:04;-1.60;60.60
32293;DHT22;43233;48.608;8.838;2023-03-01T02:41:35;-1.50;60.70
32293;DHT22;43233;48.608;8.838;2023-03-01T02:44:03;-1.50;60.80
32293;DHT22;43233;48.608;8.838;2023-03-01T02:46:28;-1.50;60.70
32293;DHT22;43233;48.608;8.838;2023-03-01T02:48:56;-1.50;60.80
32293;DHT22;43233;48.608;8.838;2023-03-01T02:51:24;-1.50;60.90
32293;DHT22;43233;48.608;8.838;2023-03-01T02:56:40;-1.40;61.10
32293;DHT22;43233;48.608;8.838;2023-03-01T02:59:06;-1.40;61.10
32293;DHT22;43233;48.608;8.838;2023-03-01T03:01:32;-1.40;61.40
32293;DHT22;43233;48.608;8.838;2023-03-01T03:04:05;-1.40;61.40
32293;DHT22;43233;48.608;8.838;2023-03-01T03:06:32;-1.40;61.40
32293;DHT22;43233;48.608;8.838;2023-03-01T03:08:58;-1.40;61.50
32293;DHT22;43233;48.608;8.838;2023-03-01T03:11:24;-1.40;61.90
32293;DHT22;43233;48.608;8.838;2023-03-01T03:13:49;-1.40;61.80
32293;DHT22;43233;48.608;8.838;2023-03-01T03:16:15;-1.30;61.90
32293;DHT22;43233;48.608;8.838;2023-03-01T03:18:41;-1.30;62.00
32293;DHT22;43233;48.608;8.838;2023-03-01T03:21:11;-1.30;61.80
32293;DHT22;43233;48.608;8.838;2023-03-01T03:23:37;-1.30;61.80
32293;DHT22;43233;48.608;8.838;2023-03-01T03:26:04;-1.30;61.70
32293;DHT22;43233;48.608;8.838;2023-03-01T03:28:34;-1.30;62.10
32293;DHT22;43233;48.608;8.838;2023-03-01T03:31:00;-1.30;61.90
32293;DHT22;43233;48.608;8.838;2023-03-01T03:33:30;-1.20;62.10
32293;DHT22;43233;48.608;8.838;2023-03-01T03:35:56;-1.20;61.80
32293;DHT22;43233;48.608;8.838;2023-03-01T03:38:22;-1.20;61.90
32293;DHT22;43233;48.608;8.838;2023-03-01T03:40:49;-1.20;62.00
32293;DHT22;43233;48.608;8.838;2023-03-01T03:43:20;-1.20;62.50
32293;DHT22;43233;48.608;8.838;2023-03-01T03:45:47;-1.30;62.50
32293;DHT22;43233;48.608;8.838;2023-03-01T03:48:13;-1.30;62.80
32293;DHT22;43233;48.608;8.838;2023-03-01T03:50:40;-1.20;62.60
32293;DHT22;43233;48.608;8.838;2023-03-01T03:53:09;-1.30;62.80
32293;DHT22;43233;48.608;8.838;2023-03-01T03:55:36;-1.20;62.70
32293;DHT22;43233;48.608;8.838;2023-03-01T03:58:05;-1.20;62.80
32293;DHT22;43233;48.608;8.838;2023-03-01T04:00:40;-1.20;62.60
32293;DHT22;43233;48.608;8.838;2023-03-01T04:03:06;-1.20;63.10
32293;DHT22;43233;48.608;8.838;2023-03-01T04:05:33;-1.20;62.50
32293;DHT22;43233;48.608;8.838;2023-03-01T04:07:59;-1.20;62.70
32293;DHT22;43233;48.608;8.838;2023-03-01T04:10:34;-1.20;62.70
32293;DHT22;43233;48.608;8.838;2023-03-01T04:13:02;-1.20;62.90
32293;DHT22;43233;48.608;8.838;2023-03-01T04:15:28;-1.20;63.40
32293;DHT22;43233;48.608;8.838;2023-03-01T04:17:54;-1.20;63.00
32293;DHT22;43233;48.608;8.838;2023-03-01T04:20:25;-1.20;63.10
32293;DHT22;43233;48.608;8.838;2023-03-01T04:23:04;-1.20;63.30
32293;DHT22;43233;48.608;8.838;2023-03-01T04:25:40;-1.20;63.40
32293;DHT22;43233;48.608;8.838;2023-03-01T04:28:07;-1.20;63.00
32293;DHT22;43233;48.608;8.838;2023-03-01T04:30:33;-1.30;64.00
32293;DHT22;43233;48.608;8.838;2023-03-01T04:33:02;-1.30;64.10
32293;DHT22;43233;48.608;8.838;2023-03-01T04:35:29;-1.20;63.90
32293;DHT22;43233;48.608;8.838;2023-03-01T04:37:55;-1.20;63.90
32293;DHT22;43233;48.608;8.838;2023-03-01T04:40:20;-1.20;64.10
32293;DHT22;43233;48.608;8.838;2023-03-01T04:42:46;-1.20;63.80
32293;DHT22;43233;48.608;8.838;2023-03-01T04:45:12;-1.20;63.80
32293;DHT22;43233;48.608;8.838;2023-03-01T04:47:47;-1.20;64.30
32293;DHT22;43233;48.608;8.838;2023-03-01T04:50:15;-1.20;64.00
32293;DHT22;43233;48.608;8.838;2023-03-01T04:52:44;-1.20;63.60
32293;DHT22;43233;48.608;8.838;2023-03-01T04:55:10;-1.10;64.00
32293;DHT22;43233;48.608;8.838;2023-03-01T04:57:35;-1.10;64.00
32293;DHT22;43233;48.608;8.838;2023-03-01T05:00:02;-1.10;63.80
32293;DHT22;43233;48.608;8.838;2023-03-01T05:02:46;-1.10;63.60
32293;DHT22;43233;48.608;8.838;2023-03-01T05:05:11;-1.10;63.40
32293;DHT22;43233;48.608;8.838;2023-03-01T05:07:38;-1.00;63.20
32293;DHT22;43233;48.608;8.838;2023-03-01T05:10:04;-1.00;63.30
32293;DHT22;43233;48.608;8.838;2023-03-01T05:12:29;-1.00;63.20
32293;DHT22;43233;48.608;8.838;2023-03-01T05:14:55;-1.00;63.30
32293;DHT22;43233;48.608;8.838;2023-03-01T05:17:21;-1.00;63.30
32293;DHT22;43233;48.608;8.838;2023-03-01T05:19:46;-1.00;63.30
32293;DHT22;43233;48.608;8.838;2023-03-01T05:22:12;-1.00;63.30
32293;DHT22;43233;48.608;8.838;2023-03-01T05:24:37;-1.00;63.00
32293;DHT22;43233;48.608;8.838;2023-03-01T05:27:04;-1.00;62.90
32293;DHT22;43233;48.608;8.838;2023-03-01T05:29:31;-0.90;63.10
32293;DHT22;43233;48.608;8.838;2023-03-01T05:32:01;-0.90;62.80
32293;DHT22;43233;48.608;8.838;2023-03-01T05:34:33;-0.90;62.90
32293;DHT22;43233;48.608;8.838;2023-03-01T05:36:59;-0.90;63.10
32293;DHT22;43233;48.608;8.838;2023-03-01T05:39:27;-0.90;63.10
32293;DHT22;43233;48.608;8.838;2023-03-01T05:41:55;-0.90;63.00
32293;DHT22;43233;48.608;8.838;2023-03-01T05:44:21;-0.90;63.10
32293;DHT22;43233;48.608;8.838;2023-03-01T05:46:46;-0.90;63.20
32293;DHT22;43233;48.608;8.838;2023-03-01T05:49:13;-0.90;63.30
32293;DHT22;43233;48.608;8.838;2023-03-01T05:51:40;-0.90;63.20
32293;DHT22;43233;48.608;8.838;2023-03-01T05:54:05;-0.80;63.00
32293;DHT22;43233;48.608;8.838;2023-03-01T05:56:33;-0.80;62.80
32293;DHT22;43233;48.608;8.838;2023-03-01T05:58:59;-0.90;63.00
32293;DHT22;43233;48.608;8.838;2023-03-01T06:01:25;-0.90;63.00
32293;DHT22;43233;48.608;8.838;2023-03-01T06:03:51;-0.80;63.10
32293;DHT22;43233;48.608;8.838;2023-03-01T06:06:16;-0.80;63.10
32293;DHT22;43233;48.608;8.838;2023-03-01T06:08:42;-0.80;62.80
32293;DHT22;43233;48.608;8.838;2023-03-01T06:11:07;-0.80;62.70
32293;DHT22;43233;48.608;8.838;2023-03-01T06:13:33;-0.80;62.90
32293;DHT22;43233;48.608;8.838;2023-03-01T06:15:59;-0.80;62.90
32293;DHT22;43233;48.608;8.838;2023-03-01T06:18:24;-0.80;62.80
32293;DHT22;43233;48.608;8.838;2023-03-01T06:20:56;-0.70;62.90
32293;DHT22;43233;48.608;8.838;2023-03-01T06:23:22;-0.70;62.80
32293;DHT22;43233;48.608;8.838;2023-03-01T06:25:48;-0.70;62.60
32293;DHT22;43233;48.608;8.838;2023-03-01T06:28:14;-0.70;62.70
32293;DHT22;43233;48.608;8.838;2023-03-01T06:30:40;-0.70;62.70
32293;DHT22;43233;48.608;8.838;2023-03-01T06:33:05;-0.70;62.40
32293;DHT22;43233;48.608;8.838;2023-03-01T06:35:31;-0.60;62.70
32293;DHT22;43233;48.608;8.838;2023-03-01T06:37:59;-0.70;62.80
32293;DHT22;43233;48.608;8.838;2023-03-01T06:40:25;-0.70;62.40
32293;DHT22;43233;48.608;8.838;2023-03-01T06:42:51;-0.60;62.80
32293;DHT22;43233;48.608;8.838;2023-03-01T06:45:18;-0.70;62.90
32293;DHT22;43233;48.608;8.838;2023-03-01T06:47:44;-0.60;62.70
32293;DHT22;43233;48.608;8.838;2023-03-01T06:50:11;-0.60;62.80
32293;DHT22;43233;48.608;8.838;2023-03-01T06:52:37;-0.60;62.70
32293;DHT22;43233;48.608;8.838;2023-03-01T06:55:03;-0.60;62.70
32293;DHT22;43233;48.608;8.838;2023-03-01T06:57:29;-0.50;62.80
32293;DHT22;43233;48.608;8.838;2023-03-01T06:59:55;-0.50;62.50
32293;DHT22;43233;48.608;8.838;2023-03-01T07:02:21;-0.50;62.80
32293;DHT22;43233;48.608;8.838;2023-03-01T07:04:49;-0.40;63.40
32293;DHT22;43233;48.608;8.838;2023-03-01T07:07:15;-0.40;62.60
32293;DHT22;43233;48.608;8.838;2023-03-01T07:09:40;-0.40;62.50
32293;DHT22;43233;48.608;8.838;2023-03-01T07:12:06;-0.40;62.50
32293;DHT22;43233;48.608;8.838;2023-03-01T07:14:33;-0.30;62.80
32293;DHT22;43233;48.608;8.838;2023-03-01T07:16:58;-0.20;62.90
32293;DHT22;43233;48.608;8.838;2023-03-01T07:19:24;-0.20;62.60
32293;DHT22;43233;48.608;8.838;2023-03-01T07:21:50;-0.10;62.70
32293;DHT22;43233;48.608;8.838;2023-03-01T07:24:15;-0.10;62.50
32293;DHT22;43233;48.608;8.838;2023-03-01T07:26:41;0.00;62.30
32293;DHT22;43233;48.608;8.838;2023-03-01T07:29:07;0.10;61.90
32293;DHT22;43233;48.608;8.838;2023-03-01T07:31:34;0.10;61.40
32293;DHT22;43233;48.608;8.838;2023-03-01T07:34:01;0.20;61.50
32293;DHT22;43233;48.608;8.838;2023-03-01T07:36:26;0.20;61.70
32293;DHT22;43233;48.608;8.838;2023-03-01T07:38:52;0.30;61.10
32293;DHT22;43233;48.608;8.838;2023-03-01T07:41:18;0.30;61.00
32293;DHT22;43233;48.608;8.838;2023-03-01T07:43:43;0.40;60.90
32293;DHT22;43233;48.608;8.838;2023-03-01T07:46:09;0.50;60.40
32293;DHT22;43233;48.608;8.838;2023-03-01T07:48:35;0.50;60.20
32293;DHT22;43233;48.608;8.838;2023-03-01T07:51:02;0.50;60.10
32293;DHT22;43233;48.608;8.838;2023-03-01T07:53:28;0.60;60.10
32293;DHT22;43233;48.608;8.838;2023-03-01T07:56:06;0.60;60.00
32293;DHT22;43233;48.608;8.838;2023-03-01T07:58:34;0.60;59.60
32293;DHT22;43233;48.608;8.838;2023-03-01T08:01:04;0.70;59.70
32293;DHT22;43233;48.608;8.838;2023-03-01T08:03:30;0.80;59.50
32293;DHT22;43233;48.608;8.838;2023-03-01T08:05:56;0.90;59.50
32293;DHT22;43233;48.608;8.838;2023-03-01T08:08:21;0.90;58.90
32293;DHT22;43233;48.608;8.838;2023-03-01T08:10:47;1.00;58.90
32293;DHT22;43233;48.608;8.838;2023-03-01T08:13:12;1.00;58.20
32293;DHT22;43233;48.608;8.838;2023-03-01T08:15:38;1.10;58.20
32293;DHT22;43233;48.608;8.838;2023-03-01T08:18:04;1.10;58.20
32293;DHT22;43233;48.608;8.838;2023-03-01T08:20:29;1.30;58.20
32293;DHT22;43233;48.608;8.838;2023-03-01T08:22:55;1.30;57.90
32293;DHT22;43233;48.608;8.838;2023-03-01T08:25:22;1.40;57.70
32293;DHT22;43233;48.608;8.838;2023-03-01T08:27:48;1.50;57.60
32293;DHT22;43233;48.608;8.838;2023-03-01T08:30:14;1.50;56.70
32293;DHT22;43233;48.608;8.838;2023-03-01T08:32:39;1.60;56.70
32293;DHT22;43233;48.608;8.838;2023-03-01T08:35:06;1.60;56.80
32293;DHT22;43233;48.608;8.838;2023-03-01T08:37:31;1.70;56.50
32293;DHT22;43233;48.608;8.838;2023-03-01T08:39:58;1.90;56.50
32293;DHT22;43233;48.608;8.838;2023-03-01T08:42:24;2.00;55.60
32293;DHT22;43233;48.608;8.838;2023-03-01T08:44:50;2.00;55.70
32293;DHT22;43233;48.608;8.838;2023-03-01T08:47:15;2.10;54.90
32293;DHT22;43233;48.608;8.838;2023-03-01T08:49:41;2.10;55.00
32293;DHT22;43233;48.608;8.838;2023-03-01T08:52:06;2.20;55.10
32293;DHT22;43233;48.608;8.838;2023-03-01T08:54:32;2.30;54.30
32293;DHT22;43233;48.608;8.838;2023-03-01T08:56:58;2.30;54.90
32293;DHT22;43233;48.608;8.838;2023-03-01T08:59:26;2.40;54.60
32293;DHT22;43233;48.608;8.838;2023-03-01T09:01:52;2.50;54.30
32293;DHT22;43233;48.608;8.838;2023-03-01T09:04:18;2.60;54.10
32293;DHT22;43233;48.608;8.838;2023-03-01T09:06:44;2.60;53.80
32293;DHT22;43233;48.608;8.838;2023-03-01T09:09:14;2.80;52.60
32293;DHT22;43233;48.608;8.838;2023-03-01T09:11:41;2.90;52.10
32293;DHT22;43233;48.608;8.838;2023-03-01T09:14:09;3.00;51.90
32293;DHT22;43233;48.608;8.838;2023-03-01T09:16:35;3.10;52.40
32293;DHT22;43233;48.608;8.838;2023-03-01T09:19:02;3.20;51.10
32293;DHT22;43233;48.608;8.838;2023-03-01T09:21:28;3.20;50.20
32293;DHT22;43233;48.608;8.838;2023-03-01T09:23:56;3.30;50.60
32293;DHT22;43233;48.608;8.838;2023-03-01T09:26:22;3.40;50.10
32293;DHT22;43233;48.608;8.838;2023-03-01T09:28:50;3.50;49.70
32293;DHT22;43233;48.608;8.838;2023-03-01T09:31:18;3.60;48.80
32293;DHT22;43233;48.608;8.838;2023-03-01T09:33:47;3.70;49.20
32293;DHT22;43233;48.608;8.838;2023-03-01T09:36:15;3.80;47.50
32293;DHT22;43233;48.608;8.838;2023-03-01T09:38:41;3.70;47.50
32293;DHT22;43233;48.608;8.838;2023-03-01T09:43:47;3.80;47.50
32293;DHT22;43233;48.608;8.838;2023-03-01T09:46:20;3.90;46.60
32293;DHT22;43233;48.608;8.838;2023-03-01T09:48:51;3.90;46.50
32293;DHT22;43233;48.608;8.838;2023-03-01T09:51:31;4.00;46.50
32293;DHT22;43233;48.608;8.838;2023-03-01T09:53:57;4.00;46.50
32293;DHT22;43233;48.608;8.838;2023-03-01T09:56:37;4.10;46.30
32293;DHT22;43233;48.608;8.838;2023-03-01T10:01:54;4.20;45.80
32293;DHT22;43233;48.608;8.838;2023-03-01T10:09:43;4.40;45.50
32293;DHT22;43233;48.608;8.838;2023-03-01T10:12:34;4.30;46.20
32293;DHT22;43233;48.608;8.838;2023-03-01T10:15:10;4.50;46.40
32293;DHT22;43233;48.608;8.838;2023-03-01T10:17:57;4.60;45.40
32293;DHT22;43233;48.608;8.838;2023-03-01T10:23:24;5.10;45.30
32293;DHT22;43233;48.608;8.838;2023-03-01T10:26:22;5.20;44.10
32293;DHT22;43233;48.608;8.838;2023-03-01T10:29:07;5.20;43.30
32293;DHT22;43233;48.608;8.838;2023-03-01T10:31:39;5.20;42.80
32293;DHT22;43233;48.608;8.838;2023-03-01T10:36:42;5.50;42.60
32293;DHT22;43233;48.608;8.838;2023-03-01T10:39:17;5.60;42.00
32293;DHT22;43233;48.608;8.838;2023-03-01T10:42:04;5.60;42.60
32293;DHT22;43233;48.608;8.838;2023-03-01T10:44:48;5.70;42.50
32293;DHT22;43233;48.608;8.838;2023-03-01T10:47:26;5.90;40.30
32293;DHT22;43233;48.608;8.838;2023-03-01T10:49:56;6.00;41.80
32293;DHT22;43233;48.608;8.838;2023-03-01T10:52:37;6.10;39.80
32293;DHT22;43233;48.608;8.838;2023-03-01T10:55:36;6.30;41.00
32293;DHT22;43233;48.608;8.838;2023-03-01T10:58:19;6.40;39.60
32293;DHT22;43233;48.608;8.838;2023-03-01T11:00:50;6.60;40.00
32293;DHT22;43233;48.608;8.838;2023-03-01T11:03:24;6.60;40.50
32293;DHT22;43233;48.608;8.838;2023-03-01T11:05:56;6.60;39.60
32293;DHT22;43233;48.608;8.838;2023-03-01T11:08:47;6.60;39.00
32293;DHT22;43233;48.608;8.838;2023-03-01T11:11:29;6.50;39.20
32293;DHT22;43233;48.608;8.838;2023-03-01T11:14:06;6.60;39.60
32293;DHT22;43233;48.608;8.838;2023-03-01T11:16:34;6.60;40.30
32293;DHT22;43233;48.608;8.838;2023-03-01T11:21:41;6.90;39.00
32293;DHT22;43233;48.608;8.838;2023-03-01T11:24:12;7.10;38.80
32293;DHT22;43233;48.608;8.838;2023-03-01T11:26:45;7.40;38.70
32293;DHT22;43233;48.608;8.838;2023-03-01T11:29:29;7.60;37.50
32293;DHT22;43233;48.608;8.838;2023-03-01T11:31:59;7.80;38.40
32293;DHT22;43233;48.608;8.838;2023-03-01T11:40:50;8.50;36.70
32293;DHT22;43233;48.608;8.838;2023-03-01T11:48:44;9.10;35.00
32293;DHT22;43233;48.608;8.838;2023-03-01T11:51:31;9.20;35.60
32293;DHT22;43233;48.608;8.838;2023-03-01T11:57:04;9.60;34.80
32293;DHT22;43233;48.608;8.838;2023-03-01T11:59:43;9.80;33.40
32293;DHT22;43233;48.608;8.838;2023-03-01T12:10:40;10.60;31.20
32293;DHT22;43233;48.608;8.838;2023-03-01T12:24:40;11.20;31.60
32293;DHT22;43233;48.608;8.838;2023-03-01T12:35:28;12.10;30.00
32293;DHT22;43233;48.608;8.838;2023-03-01T12:38:06;12.20;28.50
32293;DHT22;43233;48.608;8.838;2023-03-01T12:41:06;12.20;29.60
32293;DHT22;43233;48.608;8.838;2023-03-01T12:49:12;12.60;27.70
32293;DHT22;43233;48.608;8.838;2023-03-01T12:51:40;13.00;28.20
32293;DHT22;43233;48.608;8.838;2023-03-01T12:54:29;13.70;28.30
32293;DHT22;43233;48.608;8.838;2023-03-01T12:56:57;14.50;25.60
32293;DHT22;43233;48.608;8.838;2023-03-01T12:59:44;15.10;25.30
32293;DHT22;43233;48.608;8.838;2023-03-01T13:07:35;16.70;22.40
32293;DHT22;43233;48.608;8.838;2023-03-01T13:33:48;18.90;20.00
32293;DHT22;43233;48.608;8.838;2023-03-01T13:39:26;19.40;18.60
32293;DHT22;43233;48.608;8.838;2023-03-01T13:41:54;19.60;19.00
32293;DHT22;43233;48.608;8.838;2023-03-01T13:47:17;19.40;18.80
32293;DHT22;43233;48.608;8.838;2023-03-01T13:49:52;19.30;19.50
32293;DHT22;43233;48.608;8.838;2023-03-01T13:52:42;19.60;19.10
32293;DHT22;43233;48.608;8.838;2023-03-01T13:55:19;19.90;17.40
32293;DHT22;43233;48.608;8.838;2023-03-01T13:57:48;19.30;18.70
32293;DHT22;43233;48.608;8.838;2023-03-01T14:00:32;19.70;18.70
32293;DHT22;43233;48.608;8.838;2023-03-01T14:03:18;20.10;18.50
32293;DHT22;43233;48.608;8.838;2023-03-01T14:06:08;20.30;18.10
32293;DHT22;43233;48.608;8.838;2023-03-01T14:08:36;20.70;17.60
32293;DHT22;43233;48.608;8.838;2023-03-01T14:21:37;21.00;17.70
32293;DHT22;43233;48.608;8.838;2023-03-01T14:24:03;21.40;17.00
32293;DHT22;43233;48.608;8.838;2023-03-01T14:26:30;21.70;16.20
32293;DHT22;43233;48.608;8.838;2023-03-01T14:28:57;20.70;17.60
32293;DHT22;43233;48.608;8.838;2023-03-01T14:33:58;21.60;16.50
32293;DHT22;43233;48.608;8.838;2023-03-01T14:36:28;21.60;16.90
32293;DHT22;43233;48.608;8.838;2023-03-01T14:38:54;21.70;16.80
32293;DHT22;43233;48.608;8.838;2023-03-01T14:41:23;21.80;16.20
32293;DHT22;43233;48.608;8.838;2023-03-01T14:44:00;21.70;16.00
32293;DHT22;43233;48.608;8.838;2023-03-01T14:46:33;21.00;16.60
32293;DHT22;43233;48.608;8.838;2023-03-01T14:51:41;20.90;16.70
32293;DHT22;43233;48.608;8.838;2023-03-01T14:54:24;21.00;16.70
32293;DHT22;43233;48.608;8.838;2023-03-01T14:56:51;20.30;17.00
32293;DHT22;43233;48.608;8.838;2023-03-01T14:59:21;20.60;17.00
32293;DHT22;43233;48.608;8.838;2023-03-01T15:01:48;20.80;17.20
32293;DHT22;43233;48.608;8.838;2023-03-01T15:04:14;20.70;16.90
32293;DHT22;43233;48.608;8.838;2023-03-01T15:06:40;20.70;17.30
32293;DHT22;43233;48.608;8.838;2023-03-01T15:09:10;20.60;17.10
32293;DHT22;43233;48.608;8.838;2023-03-01T15:11:37;20.70;17.50
32293;DHT22;43233;48.608;8.838;2023-03-01T15:14:26;20.50;17.50
32293;DHT22;43233;48.608;8.838;2023-03-01T15:16:52;20.70;17.30
32293;DHT22;43233;48.608;8.838;2023-03-01T15:19:18;20.90;17.10
32293;DHT22;43233;48.608;8.838;2023-03-01T15:21:47;20.70;17.30
32293;DHT22;43233;48.608;8.838;2023-03-01T15:29:25;19.90;17.00
32293;DHT22;43233;48.608;8.838;2023-03-01T15:32:03;19.10;18.20
32293;DHT22;43233;48.608;8.838;2023-03-01T15:34:36;19.20;18.20
32293;DHT22;43233;48.608;8.838;2023-03-01T15:37:32;19.30;18.10
32293;DHT22;43233;48.608;8.838;2023-03-01T15:39:54;19.40;17.80
32293;DHT22;43233;48.608;8.838;2023-03-01T15:45:20;19.10;17.80
32293;DHT22;43233;48.608;8.838;2023-03-01T15:47:56;18.70;18.30
32293;DHT22;43233;48.608;8.838;2023-03-01T15:50:31;18.50;18.30
32293;DHT22;43233;48.608;8.838;2023-03-01T15:52:59;18.10;19.00
32293;DHT22;43233;48.608;8.838;2023-03-01T15:55:30;17.80;19.10
32293;DHT22;43233;48.608;8.838;2023-03-01T15:58:13;17.70;19.30
32293;DHT22;43233;48.608;8.838;2023-03-01T16:00:39;17.60;19.60
32293;DHT22;43233;48.608;8.838;2023-03-01T16:03:05;17.40;19.60
32293;DHT22;43233;48.608;8.838;2023-03-01T16:05:32;17.20;19.80
32293;DHT22;43233;48.608;8.838;2023-03-01T16:08:00;16.90;19.50
32293;DHT22;43233;48.608;8.838;2023-03-01T16:10:26;16.50;20.40
32293;DHT22;43233;48.608;8.838;2023-03-01T16:12:53;16.30;20.30
32293;DHT22;43233;48.608;8.838;2023-03-01T16:15:24;16.00;20.40
32293;DHT22;43233;48.608;8.838;2023-03-01T16:17:51;15.60;20.90
32293;DHT22;43233;48.608;8.838;2023-03-01T16:20:17;15.40;21.50
32293;DHT22;43233;48.608;8.838;2023-03-01T16:22:44;14.70;22.10
32293;DHT22;43233;48.608;8.838;2023-03-01T16:25:11;14.50;22.80
32293;DHT22;43233;48.608;8.838;2023-03-01T16:27:37;14.30;22.90
32293;DHT22;43233;48.608;8.838;2023-03-01T16:30:05;14.00;23.20
32293;DHT22;43233;48.608;8.838;2023-03-01T16:32:31;13.80;23.60
32293;DHT22;43233;48.608;8.838;2023-03-01T16:34:56;13.50;24.10
32293;DHT22;43233;48.608;8.838;2023-03-01T16:37:22;13.00;24.60
32293;DHT22;43233;48.608;8.838;2023-03-01T16:39:47;12.50;25.50
32293;DHT22;43233;48.608;8.838;2023-03-01T16:42:16;12.20;25.90
32293;DHT22;43233;48.608;8.838;2023-03-01T16:44:43;11.50;26.70
32293;DHT22;43233;48.608;8.838;2023-03-01T16:47:08;11.20;27.30
32293;DHT22;43233;48.608;8.838;2023-03-01T16:49:34;10.90;27.90
32293;DHT22;43233;48.608;8.838;2023-03-01T16:52:00;10.50;28.50
32293;DHT22;43233;48.608;8.838;2023-03-01T16:54:27;10.10;29.10
32293;DHT22;43233;48.608;8.838;2023-03-01T16:56:53;9.70;29.70
32293;DHT22;43233;48.608;8.838;2023-03-01T16:59:18;9.30;30.40
32293;DHT22;43233;48.608;8.838;2023-03-01T17:01:45;9.10;31.10
32293;DHT22;43233;48.608;8.838;2023-03-01T17:04:11;8.80;31.30
32293;DHT22;43233;48.608;8.838;2023-03-01T17:06:37;8.70;31.90
32293;DHT22;43233;48.608;8.838;2023-03-01T17:09:03;8.60;31.90
32293;DHT22;43233;48.608;8.838;2023-03-01T17:11:29;8.50;32.20
32293;DHT22;43233;48.608;8.838;2023-03-01T17:13:54;8.40;32.20
32293;DHT22;43233;48.608;8.838;2023-03-01T17:16:20;8.20;32.40
32293;DHT22;43233;48.608;8.838;2023-03-01T17:18:46;8.00;33.20
32293;DHT22;43233;48.608;8.838;2023-03-01T17:21:13;7.80;33.60
32293;DHT22;43233;48.608;8.838;2023-03-01T17:23:42;7.70;33.60
32293;DHT22;43233;48.608;8.838;2023-03-01T17:26:08;7.60;33.90
32293;DHT22;43233;48.608;8.838;2023-03-01T17:28:35;7.50;34.00
32293;DHT22;43233;48.608;8.838;2023-03-01T17:31:02;7.50;34.30
32293;DHT22;43233;48.608;8.838;2023-03-01T17:33:28;7.30;34.60
32293;DHT22;43233;48.608;8.838;2023-03-01T17:35:58;7.30;34.80
32293;DHT22;43233;48.608;8.838;2023-03-01T17:38:24;7.20;35.00
32293;DHT22;43233;48.608;8.838;2023-03-01T17:40:50;7.10;35.40
32293;DHT22;43233;48.608;8.838;2023-03-01T17:43:16;7.00;35.40
32293;DHT22;43233;48.608;8.838;2023-03-01T17:45:43;6.90;36.10
32293;DHT22;43233;48.608;8.838;2023-03-01T17:48:13;6.80;36.20
32293;DHT22;43233;48.608;8.838;2023-03-01T17:50:40;6.70;36.20
32293;DHT22;43233;48.608;8.838;2023-03-01T17:53:07;6.60;36.80
32293;DHT22;43233;48.608;8.838;2023-03-01T17:55:38;6.50;37.00
32293;DHT22;43233;48.608;8.838;2023-03-01T17:58:05;6.40;36.80
32293;DHT22;43233;48.608;8.838;2023-03-01T18:00:32;6.30;37.20
32293;DHT22;43233;48.608;8.838;2023-03-01T18:02:58;6.20;37.00